createdAt,value
2018-11-23T00:00:42.578Z,912.82
2018-11-23T00:01:42.555Z,912.82
2018-11-23T00:02:42.518Z,912.84
2018-11-23T00:03:42.480Z,912.85
2018-11-23T00:04:42.429Z,912.91
2018-11-23T00:05:42.612Z,912.92
2018-11-23T00:06:42.364Z,912.87
2018-11-23T00:07:42.356Z,912.92
2018-11-23T00:08:42.315Z,912.93
2018-11-23T00:09:42.277Z,912.96
2018-11-23T00:10:42.257Z,913.00
2018-11-23T00:11:42.225Z,912.96
2018-11-23T00:12:42.197Z,912.95
2018-11-23T00:13:42.149Z,912.98
2018-11-23T00:14:42.133Z,912.94
2018-11-23T00:15:42.096Z,912.96
2018-11-23T00:16:42.062Z,912.93
2018-11-23T00:17:42.054Z,912.93
2018-11-23T00:18:41.989Z,912.97
2018-11-23T00:19:41.998Z,913.04
2018-11-23T00:20:41.954Z,913.02
2018-11-23T00:21:41.934Z,913.06
2018-11-23T00:22:41.881Z,913.03
2018-11-23T00:23:41.848Z,913.04
2018-11-23T00:24:41.813Z,913.03
2018-11-23T00:25:42.170Z,913.05
2018-11-23T00:26:41.757Z,913.02
2018-11-23T00:27:41.734Z,913.02
2018-11-23T00:28:41.898Z,912.96
2018-11-23T00:29:41.626Z,912.98
2018-11-23T00:30:41.761Z,912.97
2018-11-23T00:31:41.701Z,912.97
2018-11-23T00:32:41.572Z,912.99
2018-11-23T00:33:41.499Z,912.99
2018-11-23T00:34:41.823Z,912.99
2018-11-23T00:35:41.480Z,912.99
2018-11-23T00:36:41.500Z,912.95
2018-11-23T00:37:41.465Z,912.95
2018-11-23T00:38:41.342Z,912.98
2018-11-23T00:39:41.339Z,912.99
2018-11-23T00:40:41.662Z,912.98
2018-11-23T00:41:41.300Z,913.01
2018-11-23T00:42:41.224Z,912.96
2018-11-23T00:43:41.178Z,913.01
2018-11-23T00:44:41.154Z,912.97
2018-11-23T00:45:43.116Z,912.99
2018-11-23T00:46:41.088Z,912.98
2018-11-23T00:47:41.099Z,913.00
2018-11-23T00:48:41.147Z,913.02
2018-11-23T00:49:40.985Z,913.02
2018-11-23T00:50:40.965Z,913.05
2018-11-23T00:51:41.015Z,913.07
2018-11-23T00:52:40.903Z,913.09
2018-11-23T00:53:40.865Z,913.14
2018-11-23T00:54:40.843Z,913.19
2018-11-23T00:55:40.807Z,913.18
2018-11-23T00:56:40.760Z,913.22
2018-11-23T00:57:40.738Z,913.22
2018-11-23T00:58:40.717Z,913.14
2018-11-23T00:59:40.680Z,913.17
2018-11-23T01:00:40.660Z,913.16
2018-11-23T01:01:40.607Z,913.14
2018-11-23T01:02:40.826Z,913.15
2018-11-23T01:03:40.573Z,913.18
2018-11-23T01:04:40.512Z,913.22
2018-11-23T01:05:40.478Z,913.23
2018-11-23T01:06:40.458Z,913.26
2018-11-23T01:07:40.414Z,913.25
2018-11-23T01:08:40.739Z,913.24
2018-11-23T01:09:40.339Z,913.25
2018-11-23T01:10:40.327Z,913.23
2018-11-23T01:11:40.309Z,913.23
2018-11-23T01:12:40.256Z,913.22
2018-11-23T01:13:40.231Z,913.21
2018-11-23T01:14:40.384Z,913.23
2018-11-23T01:15:40.157Z,913.21
2018-11-23T01:16:40.142Z,913.21
2018-11-23T01:17:40.090Z,913.21
2018-11-23T01:18:40.074Z,913.16
2018-11-23T01:19:40.060Z,913.22
2018-11-23T01:20:40.000Z,913.19
2018-11-23T01:21:39.969Z,913.18
2018-11-23T01:22:39.935Z,913.19
2018-11-23T01:23:39.922Z,913.23
2018-11-23T01:24:39.871Z,913.26
2018-11-23T01:25:39.853Z,913.23
2018-11-23T01:26:39.840Z,913.28
2018-11-23T01:27:39.803Z,913.28
2018-11-23T01:28:39.745Z,913.27
2018-11-23T01:29:39.698Z,913.30
2018-11-23T01:30:39.687Z,913.29
2018-11-23T01:31:39.661Z,913.33
2018-11-23T01:32:39.619Z,913.30
2018-11-23T01:33:39.572Z,913.30
2018-11-23T01:34:39.551Z,913.27
2018-11-23T01:35:39.762Z,913.24
2018-11-23T01:36:39.475Z,913.22
2018-11-23T01:37:39.486Z,913.24
2018-11-23T01:38:39.414Z,913.22
2018-11-23T01:39:39.415Z,913.23
2018-11-23T01:40:39.348Z,913.30
2018-11-23T01:41:39.536Z,913.32
2018-11-23T01:42:39.288Z,913.31
2018-11-23T01:43:39.259Z,913.30
2018-11-23T01:44:39.250Z,913.32
2018-11-23T01:45:39.189Z,913.31
2018-11-23T01:46:39.182Z,913.31
2018-11-23T01:47:39.119Z,913.29
2018-11-23T01:48:39.112Z,913.30
2018-11-23T01:49:39.081Z,913.29
2018-11-23T01:50:39.033Z,913.24
2018-11-23T01:51:39.016Z,913.22
2018-11-23T01:52:39.001Z,913.25
2018-11-23T01:53:38.935Z,913.22
2018-11-23T01:54:38.948Z,913.20
2018-11-23T01:55:38.875Z,913.20
2018-11-23T01:56:38.853Z,913.21
2018-11-23T01:57:38.799Z,913.18
2018-11-23T01:58:38.779Z,913.18
2018-11-23T01:59:38.750Z,913.18
2018-11-23T02:00:38.722Z,913.15
2018-11-23T02:01:38.668Z,913.14
2018-11-23T02:02:38.632Z,913.10
2018-11-23T02:03:38.606Z,913.13
2018-11-23T02:04:38.566Z,913.11
2018-11-23T02:05:38.546Z,913.09
2018-11-23T02:06:38.531Z,913.09
2018-11-23T02:07:38.640Z,913.11
2018-11-23T02:08:38.464Z,913.06
2018-11-23T02:09:38.436Z,913.07
2018-11-23T02:10:38.392Z,913.07
2018-11-23T02:11:38.354Z,913.06
2018-11-23T02:12:38.323Z,913.02
2018-11-23T02:14:38.261Z,913.01
2018-11-23T02:15:38.240Z,912.97
2018-11-23T02:16:38.180Z,912.96
2018-11-23T02:17:38.192Z,912.94
2018-11-23T02:18:38.137Z,912.92
2018-11-23T02:19:38.125Z,912.93
2018-11-23T02:20:38.079Z,912.90
2018-11-23T02:21:38.053Z,912.91
2018-11-23T02:22:38.007Z,912.88
2018-11-23T02:23:37.985Z,912.87
2018-11-23T02:24:37.939Z,912.85
2018-11-23T02:25:37.892Z,912.85
2018-11-23T02:26:37.865Z,912.83
2018-11-23T02:27:37.854Z,912.79
2018-11-23T02:28:37.820Z,912.77
2018-11-23T02:29:37.792Z,912.74
2018-11-23T02:30:37.770Z,912.79
2018-11-23T02:31:37.736Z,912.78
2018-11-23T02:32:37.679Z,912.81
2018-11-23T02:33:37.636Z,912.81
2018-11-23T02:34:37.920Z,912.83
2018-11-23T02:35:37.578Z,912.86
2018-11-23T02:36:37.573Z,912.79
2018-11-23T02:37:37.519Z,912.80
2018-11-23T02:38:37.501Z,912.72
2018-11-23T02:39:37.446Z,912.76
2018-11-23T02:40:37.588Z,912.73
2018-11-23T02:41:37.393Z,912.74
2018-11-23T02:42:37.357Z,912.69
2018-11-23T02:43:37.310Z,912.70
2018-11-23T02:44:37.296Z,912.65
2018-11-23T02:45:37.270Z,912.64
2018-11-23T02:46:37.239Z,912.62
2018-11-23T02:47:37.205Z,912.60
2018-11-23T02:48:37.168Z,912.58
2018-11-23T02:49:37.132Z,912.56
2018-11-23T02:50:37.170Z,912.54
2018-11-23T02:51:37.074Z,912.49
2018-11-23T02:52:37.042Z,912.42
2018-11-23T02:53:36.994Z,912.44
2018-11-23T02:54:36.959Z,912.42
2018-11-23T02:55:36.923Z,912.42
2018-11-23T02:56:36.896Z,912.40
2018-11-23T02:57:36.879Z,912.39
2018-11-23T02:58:36.845Z,912.36
2018-11-23T02:59:36.795Z,912.33
2018-11-23T03:00:36.782Z,912.35
2018-11-23T03:01:36.755Z,912.34
2018-11-23T03:02:36.716Z,912.31
2018-11-23T03:03:36.681Z,912.30
2018-11-23T03:04:36.641Z,912.27
2018-11-23T03:05:36.624Z,912.28
2018-11-23T03:06:36.741Z,912.23
2018-11-23T03:07:36.552Z,912.24
2018-11-23T03:08:36.525Z,912.27
2018-11-23T03:09:36.511Z,912.28
2018-11-23T03:10:36.465Z,912.26
2018-11-23T03:11:36.424Z,912.24
2018-11-23T03:12:36.608Z,912.22
2018-11-23T03:13:36.397Z,912.23
2018-11-23T03:14:36.326Z,912.21
2018-11-23T03:15:36.295Z,912.19
2018-11-23T03:16:36.335Z,912.18
2018-11-23T03:17:36.232Z,912.16
2018-11-23T03:18:36.186Z,912.16
2018-11-23T03:19:36.176Z,912.13
2018-11-23T03:20:36.130Z,912.08
2018-11-23T03:21:36.084Z,912.05
2018-11-23T03:22:36.052Z,912.05
2018-11-23T03:23:36.023Z,912.08
2018-11-23T03:24:36.008Z,912.02
2018-11-23T03:25:35.962Z,912.04
2018-11-23T03:26:35.946Z,912.01
2018-11-23T03:27:35.943Z,911.96
2018-11-23T03:28:35.880Z,911.92
2018-11-23T03:29:35.855Z,911.90
2018-11-23T03:30:35.811Z,911.90
2018-11-23T03:31:35.782Z,911.88
2018-11-23T03:32:35.733Z,911.88
2018-11-23T03:33:35.721Z,911.88
2018-11-23T03:34:35.689Z,911.86
2018-11-23T03:35:35.634Z,911.85
2018-11-23T03:36:35.602Z,911.85
2018-11-23T03:37:35.568Z,911.84
2018-11-23T03:38:35.703Z,911.88
2018-11-23T03:39:35.503Z,911.81
2018-11-23T03:40:35.478Z,911.81
2018-11-23T03:41:35.481Z,911.79
2018-11-23T03:42:35.424Z,911.76
2018-11-23T03:43:35.377Z,911.69
2018-11-23T03:44:35.604Z,911.66
2018-11-23T03:45:35.324Z,911.62
2018-11-23T03:46:35.282Z,911.61
2018-11-23T03:47:35.261Z,911.59
2018-11-23T03:48:35.209Z,911.59
2018-11-23T03:49:35.178Z,911.58
2018-11-23T03:50:35.148Z,911.56
2018-11-23T03:51:35.114Z,911.53
2018-11-23T03:52:35.080Z,911.56
2018-11-23T03:53:35.053Z,911.54
2018-11-23T03:54:35.031Z,911.56
2018-11-23T03:55:35.002Z,911.60
2018-11-23T03:56:34.971Z,911.58
2018-11-23T03:57:34.940Z,911.59
2018-11-23T03:58:34.886Z,911.57
2018-11-23T03:59:34.869Z,911.52
2018-11-23T04:00:34.839Z,911.46
2018-11-23T04:01:34.808Z,911.39
2018-11-23T04:02:34.783Z,911.31
2018-11-23T04:03:34.734Z,911.30
2018-11-23T04:04:34.691Z,911.26
2018-11-23T04:05:34.675Z,911.27
2018-11-23T04:06:34.643Z,911.28
2018-11-23T04:07:34.609Z,911.31
2018-11-23T04:08:34.565Z,911.27
2018-11-23T04:09:34.542Z,911.25
2018-11-23T04:10:34.501Z,911.25
2018-11-23T04:11:34.463Z,911.25
2018-11-23T04:12:34.435Z,911.19
2018-11-23T04:13:34.399Z,911.18
2018-11-23T04:14:34.381Z,911.20
2018-11-23T04:15:34.337Z,911.15
2018-11-23T04:16:34.327Z,911.13
2018-11-23T04:17:34.276Z,911.12
2018-11-23T04:18:34.256Z,911.15
2018-11-23T04:19:34.229Z,911.19
2018-11-23T04:20:34.184Z,911.18
2018-11-23T04:21:34.156Z,911.22
2018-11-23T04:22:34.128Z,911.21
2018-11-23T04:23:34.112Z,911.21
2018-11-23T04:24:34.056Z,911.22
2018-11-23T04:25:34.051Z,911.22
2018-11-23T04:26:33.981Z,911.21
2018-11-23T04:27:33.962Z,911.20
2018-11-23T04:28:33.926Z,911.19
2018-11-23T04:29:33.883Z,911.16
2018-11-23T04:30:33.862Z,911.16
2018-11-23T04:31:33.838Z,911.11
2018-11-23T04:32:33.831Z,911.14
2018-11-23T04:33:33.748Z,911.09
2018-11-23T04:34:33.722Z,911.14
2018-11-23T04:35:33.688Z,911.07
2018-11-23T04:36:34.005Z,911.05
2018-11-23T04:37:33.635Z,911.03
2018-11-23T04:38:33.598Z,910.99
2018-11-23T04:39:33.573Z,910.95
2018-11-23T04:40:33.556Z,910.92
2018-11-23T04:41:33.500Z,910.93
2018-11-23T04:42:33.775Z,910.92
2018-11-23T04:43:33.427Z,910.92
2018-11-23T04:44:33.398Z,910.87
2018-11-23T04:45:33.390Z,910.91
2018-11-23T04:46:33.344Z,910.92
2018-11-23T04:47:33.291Z,910.91
2018-11-23T04:48:33.266Z,910.89
2018-11-23T04:49:33.243Z,910.91
2018-11-23T04:50:33.196Z,910.96
2018-11-23T04:51:33.180Z,910.97
2018-11-23T04:52:33.128Z,910.95
2018-11-23T04:53:33.110Z,910.96
2018-11-23T04:54:33.075Z,910.93
2018-11-23T04:55:33.054Z,910.96
2018-11-23T04:56:33.005Z,910.97
2018-11-23T04:57:32.970Z,910.97
2018-11-23T04:58:32.941Z,910.97
2018-11-23T04:59:32.914Z,910.96
2018-11-23T05:00:32.889Z,910.93
2018-11-23T05:01:32.837Z,910.91
2018-11-23T05:02:32.819Z,910.86
2018-11-23T05:03:32.772Z,910.84
2018-11-23T05:04:32.733Z,910.82
2018-11-23T05:05:32.707Z,910.80
2018-11-23T05:06:32.685Z,910.79
2018-11-23T05:07:32.637Z,910.73
2018-11-23T05:08:32.984Z,910.69
2018-11-23T05:09:32.571Z,910.69
2018-11-23T05:10:32.543Z,910.70
2018-11-23T05:11:32.527Z,910.68
2018-11-23T05:12:32.478Z,910.68
2018-11-23T05:13:32.450Z,910.77
2018-11-23T05:14:32.620Z,910.78
2018-11-23T05:15:32.397Z,910.80
2018-11-23T05:16:32.370Z,910.82
2018-11-23T05:17:32.335Z,910.83
2018-11-23T05:18:32.281Z,910.85
2018-11-23T05:19:32.259Z,910.87
2018-11-23T05:20:32.217Z,910.86
2018-11-23T05:21:32.191Z,910.86
2018-11-23T05:22:32.149Z,910.85
2018-11-23T05:23:32.136Z,910.87
2018-11-23T05:24:32.097Z,910.86
2018-11-23T05:25:32.059Z,910.82
2018-11-23T05:26:32.024Z,910.77
2018-11-23T05:27:32.021Z,910.76
2018-11-23T05:28:31.948Z,910.74
2018-11-23T05:29:31.935Z,910.71
2018-11-23T05:30:31.884Z,910.69
2018-11-23T05:31:31.872Z,910.73
2018-11-23T05:32:31.820Z,910.73
2018-11-23T05:33:31.846Z,910.70
2018-11-23T05:34:31.767Z,910.75
2018-11-23T05:35:32.037Z,910.72
2018-11-23T05:36:31.702Z,910.71
2018-11-23T05:37:31.682Z,910.69
2018-11-23T05:38:31.641Z,910.67
2018-11-23T05:39:31.642Z,910.66
2018-11-23T05:40:31.586Z,910.71
2018-11-23T05:41:31.693Z,910.66
2018-11-23T05:42:31.503Z,910.69
2018-11-23T05:43:31.457Z,910.71
2018-11-23T05:44:31.431Z,910.74
2018-11-23T05:45:31.404Z,910.74
2018-11-23T05:46:31.358Z,910.76
2018-11-23T05:47:31.328Z,910.73
2018-11-23T05:48:31.322Z,910.69
2018-11-23T05:49:31.261Z,910.69
2018-11-23T05:50:31.235Z,910.66
2018-11-23T05:51:31.237Z,910.62
2018-11-23T05:52:31.179Z,910.62
2018-11-23T05:53:31.129Z,910.60
2018-11-23T05:54:31.094Z,910.59
2018-11-23T05:55:31.067Z,910.58
2018-11-23T05:56:31.045Z,910.53
2018-11-23T05:57:31.023Z,910.54
2018-11-23T05:58:30.967Z,910.47
2018-11-23T05:59:30.927Z,910.47
2018-11-23T06:00:30.920Z,910.45
2018-11-23T06:01:30.886Z,910.43
2018-11-23T06:02:30.850Z,910.41
2018-11-23T06:03:30.803Z,910.43
2018-11-23T06:04:30.765Z,910.43
2018-11-23T06:05:30.745Z,910.42
2018-11-23T06:06:30.715Z,910.41
2018-11-23T06:07:30.686Z,910.38
2018-11-23T06:08:30.653Z,910.41
2018-11-23T06:09:30.619Z,910.39
2018-11-23T06:10:30.582Z,910.39
2018-11-23T06:11:30.546Z,910.40
2018-11-23T06:12:30.517Z,910.38
2018-11-23T06:13:30.583Z,910.39
2018-11-23T06:14:30.499Z,910.40
2018-11-23T06:15:30.407Z,910.45
2018-11-23T06:16:30.390Z,910.42
2018-11-23T06:17:30.339Z,910.50
2018-11-23T06:18:30.314Z,910.47
2018-11-23T06:19:30.270Z,910.42
2018-11-23T06:20:30.287Z,910.46
2018-11-23T06:21:30.224Z,910.44
2018-11-23T06:22:30.193Z,910.48
2018-11-23T06:23:30.158Z,910.45
2018-11-23T06:24:32.151Z,910.43
2018-11-23T06:25:30.097Z,910.43
2018-11-23T06:26:30.041Z,910.43
2018-11-23T06:27:30.008Z,910.43
2018-11-23T06:28:29.977Z,910.46
2018-11-23T06:29:29.998Z,910.44
2018-11-23T06:30:29.938Z,910.42
2018-11-23T06:31:29.893Z,910.39
2018-11-23T06:32:29.850Z,910.37
2018-11-23T06:33:29.811Z,910.38
2018-11-23T06:34:29.820Z,910.38
2018-11-23T06:35:29.765Z,910.40
2018-11-23T06:36:29.710Z,910.38
2018-11-23T06:37:29.679Z,910.40
2018-11-23T06:38:29.823Z,910.34
2018-11-23T06:39:29.619Z,910.33
2018-11-23T06:40:29.583Z,910.33
2018-11-23T06:41:29.545Z,910.34
2018-11-23T06:42:29.535Z,910.32
2018-11-23T06:43:29.498Z,910.30
2018-11-23T06:44:29.481Z,910.34
2018-11-23T06:45:29.419Z,910.39
2018-11-23T06:46:29.398Z,910.42
2018-11-23T06:47:29.349Z,910.42
2018-11-23T06:48:29.309Z,910.45
2018-11-23T06:49:29.313Z,910.47
2018-11-23T06:50:29.265Z,910.47
2018-11-23T06:51:29.231Z,910.48
2018-11-23T06:52:29.193Z,910.48
2018-11-23T06:53:29.155Z,910.50
2018-11-23T06:54:29.138Z,910.53
2018-11-23T06:55:29.083Z,910.54
2018-11-23T06:56:29.052Z,910.51
2018-11-23T06:57:29.033Z,910.50
2018-11-23T06:58:29.110Z,910.51
2018-11-23T06:59:28.950Z,910.51
2018-11-23T07:00:28.950Z,910.56
2018-11-23T07:01:28.897Z,910.53
2018-11-23T07:02:28.858Z,910.58
2018-11-23T07:03:28.849Z,910.58
2018-11-23T07:04:28.810Z,910.60
2018-11-23T07:05:29.102Z,910.62
2018-11-23T07:06:28.737Z,910.57
2018-11-23T07:07:28.722Z,910.58
2018-11-23T07:08:28.658Z,910.56
2018-11-23T07:09:28.652Z,910.54
2018-11-23T07:10:28.601Z,910.57
2018-11-23T07:11:28.565Z,910.52
2018-11-23T07:12:28.525Z,910.52
2018-11-23T07:13:28.487Z,910.50
2018-11-23T07:14:28.480Z,910.50
2018-11-23T07:15:28.429Z,910.52
2018-11-23T07:16:28.389Z,910.49
2018-11-23T07:17:28.358Z,910.49
2018-11-23T07:18:28.338Z,910.51
2018-11-23T07:19:28.311Z,910.51
2018-11-23T07:20:28.271Z,910.47
2018-11-23T07:21:28.242Z,910.51
2018-11-23T07:22:28.195Z,910.49
2018-11-23T07:23:28.204Z,910.52
2018-11-23T07:24:28.123Z,910.52
2018-11-23T07:25:28.090Z,910.55
2018-11-23T07:26:28.074Z,910.54
2018-11-23T07:27:28.044Z,910.53
2018-11-23T07:28:27.995Z,910.55
2018-11-23T07:29:27.977Z,910.57
2018-11-23T07:30:27.942Z,910.58
2018-11-23T07:31:27.890Z,910.56
2018-11-23T07:32:27.880Z,910.59
2018-11-23T07:33:27.829Z,910.59
2018-11-23T07:34:27.806Z,910.60
2018-11-23T07:35:27.770Z,910.60
2018-11-23T07:36:27.741Z,910.61
2018-11-23T07:37:27.872Z,910.61
2018-11-23T07:38:27.697Z,910.61
2018-11-23T07:39:27.631Z,910.63
2018-11-23T07:40:27.610Z,910.63
2018-11-23T07:41:27.575Z,910.68
2018-11-23T07:42:27.539Z,910.70
2018-11-23T07:43:27.677Z,910.69
2018-11-23T07:44:27.476Z,910.72
2018-11-23T07:45:27.427Z,910.71
2018-11-23T07:46:27.397Z,910.73
2018-11-23T07:47:27.379Z,910.72
2018-11-23T07:48:27.349Z,910.78
2018-11-23T07:49:27.315Z,910.76
2018-11-23T07:50:27.274Z,910.79
2018-11-23T07:51:27.240Z,910.78
2018-11-23T07:52:27.192Z,910.77
2018-11-23T07:53:27.184Z,910.77
2018-11-23T07:54:27.150Z,910.77
2018-11-23T07:55:27.105Z,910.77
2018-11-23T07:56:27.076Z,910.79
2018-11-23T07:57:27.051Z,910.80
2018-11-23T07:58:27.016Z,910.80
2018-11-23T07:59:26.979Z,910.79
2018-11-23T08:00:26.950Z,910.81
2018-11-23T08:01:26.911Z,910.81
2018-11-23T08:02:26.870Z,910.86
2018-11-23T08:03:26.844Z,910.89
2018-11-23T08:04:26.964Z,910.93
2018-11-23T08:05:26.767Z,910.97
2018-11-23T08:06:26.744Z,910.97
2018-11-23T08:07:26.708Z,910.98
2018-11-23T08:08:26.680Z,910.99
2018-11-23T08:09:26.645Z,910.98
2018-11-23T08:10:26.817Z,910.99
2018-11-23T08:11:26.568Z,910.99
2018-11-23T08:12:26.556Z,911.02
2018-11-23T08:13:26.502Z,911.05
2018-11-23T08:14:26.474Z,911.04
2018-11-23T08:15:26.461Z,911.06
2018-11-23T08:16:26.421Z,911.01
2018-11-23T08:17:26.410Z,911.04
2018-11-23T08:18:26.337Z,911.00
2018-11-23T08:19:26.409Z,911.04
2018-11-23T08:20:26.327Z,911.08
2018-11-23T08:21:26.498Z,911.07
2018-11-23T08:22:26.211Z,911.05
2018-11-23T08:23:26.165Z,911.07
2018-11-23T08:24:27.165Z,911.10
2018-11-23T08:25:26.098Z,911.08
2018-11-23T08:26:26.067Z,911.07
2018-11-23T08:27:26.039Z,911.13
2018-11-23T08:28:26.031Z,911.13
2018-11-23T08:29:26.008Z,911.11
2018-11-23T08:30:25.989Z,911.15
2018-11-23T08:31:25.898Z,911.14
2018-11-23T08:32:25.880Z,911.14
2018-11-23T08:33:25.837Z,911.14
2018-11-23T08:34:25.844Z,911.12
2018-11-23T08:35:25.808Z,911.10
2018-11-23T08:36:25.739Z,911.15
2018-11-23T08:37:25.848Z,911.15
2018-11-23T08:38:25.686Z,911.17
2018-11-23T08:39:25.634Z,911.17
2018-11-23T08:40:25.597Z,911.26
2018-11-23T08:41:25.585Z,911.30
2018-11-23T08:42:25.533Z,911.27
2018-11-23T08:43:25.713Z,911.27
2018-11-23T08:44:25.480Z,911.32
2018-11-23T08:45:25.436Z,911.32
2018-11-23T08:46:25.419Z,911.33
2018-11-23T08:47:25.374Z,911.34
2018-11-23T08:48:25.333Z,911.36
2018-11-23T08:49:25.298Z,911.36
2018-11-23T08:50:25.264Z,911.30
2018-11-23T08:51:25.335Z,911.27
2018-11-23T08:52:25.228Z,911.27
2018-11-23T08:53:27.973Z,911.23
2018-11-23T08:54:25.138Z,911.21
2018-11-23T08:55:25.118Z,911.23
2018-11-23T08:56:25.068Z,911.24
2018-11-23T08:57:25.253Z,911.22
2018-11-23T08:58:25.016Z,911.24
2018-11-23T08:59:24.996Z,911.27
2018-11-23T09:00:24.950Z,911.26
2018-11-23T09:01:24.901Z,911.33
2018-11-23T09:02:24.877Z,911.36
2018-11-23T09:03:24.868Z,911.36
2018-11-23T09:04:25.172Z,911.42
2018-11-23T09:05:24.789Z,911.44
2018-11-23T09:06:24.749Z,911.50
2018-11-23T09:07:24.703Z,911.53
2018-11-23T09:08:24.669Z,911.60
2018-11-23T09:09:24.647Z,911.66
2018-11-23T09:10:24.656Z,911.68
2018-11-23T09:11:24.590Z,911.72
2018-11-23T09:12:24.613Z,911.71
2018-11-23T09:13:24.517Z,911.70
2018-11-23T09:14:24.493Z,911.67
2018-11-23T09:15:24.454Z,911.64
2018-11-23T09:16:24.417Z,911.67
2018-11-23T09:17:24.375Z,911.67
2018-11-23T09:18:24.342Z,911.66
2018-11-23T09:19:24.300Z,911.68
2018-11-23T09:21:24.242Z,911.73
2018-11-23T09:22:24.203Z,911.77
2018-11-23T09:23:24.249Z,911.81
2018-11-23T09:24:24.164Z,911.83
2018-11-23T09:25:24.128Z,911.83
2018-11-23T09:26:24.087Z,911.88
2018-11-23T09:27:24.055Z,911.86
2018-11-23T09:28:25.437Z,911.87
2018-11-23T09:29:23.989Z,911.89
2018-11-23T09:30:24.055Z,911.92
2018-11-23T09:31:23.929Z,911.97
2018-11-23T09:32:23.880Z,911.99
2018-11-23T09:33:23.868Z,911.99
2018-11-23T09:34:23.806Z,912.00
2018-11-23T09:35:23.779Z,912.04
2018-11-23T09:36:23.763Z,912.01
2018-11-23T09:37:23.739Z,912.01
2018-11-23T09:38:23.699Z,912.04
2018-11-23T09:39:23.647Z,912.03
2018-11-23T09:40:23.670Z,912.05
2018-11-23T09:41:23.600Z,912.11
2018-11-23T09:42:23.712Z,912.09
2018-11-23T09:43:23.538Z,912.11
2018-11-23T09:44:23.513Z,912.13
2018-11-23T09:45:23.453Z,912.17
2018-11-23T09:46:23.414Z,912.15
2018-11-23T09:47:23.402Z,912.21
2018-11-23T09:48:23.359Z,912.19
2018-11-23T09:49:23.439Z,912.18
2018-11-23T09:50:23.302Z,912.19
2018-11-23T09:51:23.260Z,912.21
2018-11-23T09:52:23.222Z,912.20
2018-11-23T09:53:23.210Z,912.21
2018-11-23T09:54:23.168Z,912.20
2018-11-23T09:55:24.010Z,912.22
2018-11-23T09:56:23.107Z,912.22
2018-11-23T09:57:23.083Z,912.22
2018-11-23T09:58:23.031Z,912.26
2018-11-23T09:59:23.030Z,912.24
2018-11-23T10:00:22.963Z,912.25
2018-11-23T10:01:23.148Z,912.22
2018-11-23T10:02:22.913Z,912.25
2018-11-23T10:03:22.883Z,912.21
2018-11-23T10:04:22.852Z,912.20
2018-11-23T10:05:22.819Z,912.18
2018-11-23T10:06:22.768Z,912.24
2018-11-23T10:07:22.745Z,912.24
2018-11-23T10:08:22.858Z,912.27
2018-11-23T10:09:22.688Z,912.24
2018-11-23T10:10:22.657Z,912.28
2018-11-23T10:11:22.616Z,912.35
2018-11-23T10:12:22.580Z,912.35
2018-11-23T10:13:22.543Z,912.38
2018-11-23T10:14:22.542Z,912.39
2018-11-23T10:15:22.494Z,912.39
2018-11-23T10:16:22.462Z,912.41
2018-11-23T10:17:22.429Z,912.46
2018-11-23T10:18:22.402Z,912.47
2018-11-23T10:20:22.367Z,912.47
2018-11-23T10:21:22.290Z,912.49
2018-11-23T10:22:22.262Z,912.50
2018-11-23T10:23:22.563Z,912.44
2018-11-23T10:24:22.216Z,912.46
2018-11-23T10:25:22.176Z,912.49
2018-11-23T10:26:22.143Z,912.43
2018-11-23T10:27:22.315Z,912.48
2018-11-23T10:28:22.225Z,912.48
2018-11-23T10:29:22.030Z,912.51
2018-11-23T10:30:55.214Z,912.56
2018-11-23T10:31:21.971Z,912.60
2018-11-23T10:32:21.936Z,912.62
2018-11-23T10:33:22.818Z,912.60
2018-11-23T10:34:22.040Z,912.64
2018-11-23T10:35:21.851Z,912.64
2018-11-23T10:36:21.809Z,912.63
2018-11-23T10:37:21.797Z,912.57
2018-11-23T10:38:21.767Z,912.52
2018-11-23T10:39:21.720Z,912.48
2018-11-23T10:40:21.888Z,912.40
2018-11-23T10:41:21.666Z,912.40
2018-11-23T10:42:21.678Z,912.42
2018-11-23T10:43:21.595Z,912.41
2018-11-23T10:44:21.584Z,912.35
2018-11-23T10:45:21.528Z,912.35
2018-11-23T10:46:22.234Z,912.34
2018-11-23T10:47:21.546Z,912.35
2018-11-23T10:48:21.464Z,912.30
2018-11-23T10:49:21.415Z,912.32
2018-11-23T10:50:21.386Z,912.26
2018-11-23T10:51:21.337Z,912.33
2018-11-23T10:52:21.346Z,912.34
2018-11-23T10:53:21.286Z,912.36
2018-11-23T10:54:21.316Z,912.40
2018-11-23T10:55:21.218Z,912.38
2018-11-23T10:57:21.195Z,912.39
2018-11-23T10:58:21.119Z,912.40
2018-11-23T10:59:22.291Z,912.37
2018-11-23T11:00:21.071Z,912.38
2018-11-23T11:01:21.022Z,912.33
2018-11-23T11:02:21.007Z,912.27
2018-11-23T11:03:20.966Z,912.28
2018-11-23T11:04:20.942Z,912.29
2018-11-23T11:05:20.912Z,912.28
2018-11-23T11:06:21.047Z,912.29
2018-11-23T11:07:20.836Z,912.32
2018-11-23T11:08:20.822Z,912.31
2018-11-23T11:09:20.785Z,912.30
2018-11-23T11:10:20.756Z,912.31
2018-11-23T11:11:20.725Z,912.34
2018-11-23T11:12:20.988Z,912.37
2018-11-23T11:13:20.666Z,912.36
2018-11-23T11:14:20.646Z,912.35
2018-11-23T11:15:20.598Z,912.30
2018-11-23T11:16:20.560Z,912.28
2018-11-23T11:17:20.543Z,912.33
2018-11-23T11:18:20.675Z,912.29
2018-11-23T11:19:20.482Z,912.30
2018-11-23T11:20:20.438Z,912.28
2018-11-23T11:21:20.425Z,912.26
2018-11-23T11:22:20.374Z,912.32
2018-11-23T11:23:20.345Z,912.28
2018-11-23T11:24:20.308Z,912.31
2018-11-23T11:25:20.289Z,912.29
2018-11-23T11:26:20.248Z,912.29
2018-11-23T11:27:20.230Z,912.31
2018-11-23T11:29:20.172Z,912.32
2018-11-23T11:30:20.142Z,912.28
2018-11-23T11:31:20.113Z,912.26
2018-11-23T11:32:20.067Z,912.27
2018-11-23T11:33:20.048Z,912.23
2018-11-23T11:34:20.026Z,912.28
2018-11-23T11:35:19.974Z,912.30
2018-11-23T11:36:19.960Z,912.27
2018-11-23T11:37:19.932Z,912.24
2018-11-23T11:38:19.885Z,912.23
2018-11-23T11:39:20.018Z,912.20
2018-11-23T11:40:19.843Z,912.26
2018-11-23T11:41:19.811Z,912.31
2018-11-23T11:42:19.811Z,912.27
2018-11-23T11:43:19.743Z,912.29
2018-11-23T11:44:19.742Z,912.30
2018-11-23T11:45:19.993Z,912.27
2018-11-23T11:46:19.664Z,912.30
2018-11-23T11:47:19.629Z,912.28
2018-11-23T11:48:19.602Z,912.27
2018-11-23T11:49:19.570Z,912.24
2018-11-23T11:50:19.570Z,912.29
2018-11-23T11:51:19.524Z,912.21
2018-11-23T11:52:19.467Z,912.16
2018-11-23T11:53:19.435Z,912.26
2018-11-23T11:54:19.414Z,912.24
2018-11-23T11:55:19.385Z,912.21
2018-11-23T11:56:19.352Z,912.23
2018-11-23T11:57:19.320Z,912.23
2018-11-23T11:58:19.300Z,912.21
2018-11-23T11:59:19.304Z,912.26
2018-11-23T12:00:19.270Z,912.29
2018-11-23T12:01:19.201Z,912.32
2018-11-23T12:02:19.172Z,912.38
2018-11-23T12:03:19.156Z,912.41
2018-11-23T12:04:19.133Z,912.37
2018-11-23T12:05:19.078Z,912.40
2018-11-23T12:06:19.082Z,912.41
2018-11-23T12:07:19.034Z,912.40
2018-11-23T12:08:19.007Z,912.40
2018-11-23T12:09:18.962Z,912.33
2018-11-23T12:10:18.922Z,912.39
2018-11-23T12:11:19.107Z,912.38
2018-11-23T12:12:18.857Z,912.35
2018-11-23T12:13:18.860Z,912.39
2018-11-23T12:14:18.816Z,912.35
2018-11-23T12:15:18.788Z,912.31
2018-11-23T12:16:18.742Z,912.30
2018-11-23T12:17:18.876Z,912.26
2018-11-23T12:18:18.698Z,912.28
2018-11-23T12:19:18.735Z,912.25
2018-11-23T12:20:18.621Z,912.22
2018-11-23T12:21:18.613Z,912.20
2018-11-23T12:22:18.594Z,912.22
2018-11-23T12:23:18.616Z,912.23
2018-11-23T12:24:18.520Z,912.24
2018-11-23T12:25:18.492Z,912.24
2018-11-23T12:26:18.442Z,912.33
2018-11-23T12:27:18.539Z,912.34
2018-11-23T12:28:18.381Z,912.36
2018-11-23T12:29:18.355Z,912.37
2018-11-23T12:30:18.329Z,912.34
2018-11-23T12:31:18.299Z,912.34
2018-11-23T12:32:18.270Z,912.26
2018-11-23T12:33:18.259Z,912.26